sensor_id;sensor_type;location;lat;lon;timestamp;P1;durP1;ratioP1;P2;durP2;ratioP2
17858;SDS011;35426;30.698;104.050;2022-09-01T00:01:16;14.17;;;6.77;;
17858;SDS011;35426;30.698;104.050;2022-09-01T00:03:52;15.60;;;7.40;;
17858;SDS011;35426;30.698;104.050;2022-09-01T00:06:42;12.47;;;6.70;;
17858;SDS011;35426;30.698;104.050;2022-09-01T00:09:16;15.13;;;6.27;;
17858;SDS011;35426;30.698;104.050;2022-09-01T00:11:51;16.43;;;7.27;;
17858;SDS011;35426;30.698;104.050;2022-09-01T00:14:28;16.17;;;6.83;;
17858;SDS011;35426;30.698;104.050;2022-09-01T00:17:12;13.37;;;7.13;;
17858;SDS011;35426;30.698;104.050;2022-09-01T00:19:46;14.87;;;7.50;;
17858;SDS011;35426;30.698;104.050;2022-09-01T00:22:20;19.10;;;7.27;;
17858;SDS011;35426;30.698;104.050;2022-09-01T00:24:53;15.10;;;7.57;;
17858;SDS011;35426;30.698;104.050;2022-09-01T00:27:27;16.40;;;7.90;;
17858;SDS011;35426;30.698;104.050;2022-09-01T00:30:09;14.43;;;7.27;;
17858;SDS011;35426;30.698;104.050;2022-09-01T00:32:45;18.10;;;7.70;;
17858;SDS011;35426;30.698;104.050;2022-09-01T00:35:19;21.63;;;7.27;;
17858;SDS011;35426;30.698;104.050;2022-09-01T00:37:53;11.13;;;7.30;;
17858;SDS011;35426;30.698;104.050;2022-09-01T00:40:28;17.70;;;7.50;;
17858;SDS011;35426;30.698;104.050;2022-09-01T00:43:09;22.50;;;9.93;;
17858;SDS011;35426;30.698;104.050;2022-09-01T00:45:47;18.23;;;8.20;;
17858;SDS011;35426;30.698;104.050;2022-09-01T00:48:24;18.60;;;7.90;;
17858;SDS011;35426;30.698;104.050;2022-09-01T00:50:59;13.87;;;7.70;;
17858;SDS011;35426;30.698;104.050;2022-09-01T00:53:33;12.93;;;7.80;;
17858;SDS011;35426;30.698;104.050;2022-09-01T00:56:08;17.77;;;7.33;;
17858;SDS011;35426;30.698;104.050;2022-09-01T00:58:43;14.80;;;7.37;;
17858;SDS011;35426;30.698;104.050;2022-09-01T01:01:16;12.27;;;7.30;;
17858;SDS011;35426;30.698;104.050;2022-09-01T01:03:53;17.87;;;7.83;;
17858;SDS011;35426;30.698;104.050;2022-09-01T01:06:31;15.13;;;8.20;;
17858;SDS011;35426;30.698;104.050;2022-09-01T01:09:05;16.63;;;8.50;;
17858;SDS011;35426;30.698;104.050;2022-09-01T01:11:38;20.10;;;10.30;;
17858;SDS011;35426;30.698;104.050;2022-09-01T01:14:14;20.93;;;9.90;;
17858;SDS011;35426;30.698;104.050;2022-09-01T01:16:48;23.57;;;9.40;;
17858;SDS011;35426;30.698;104.050;2022-09-01T01:19:30;22.73;;;11.27;;
17858;SDS011;35426;30.698;104.050;2022-09-01T01:22:31;20.70;;;10.60;;
17858;SDS011;35426;30.698;104.050;2022-09-01T01:25:29;19.63;;;10.27;;
17858;SDS011;35426;30.698;104.050;2022-09-01T01:28:07;22.13;;;10.90;;
17858;SDS011;35426;30.698;104.050;2022-09-01T01:30:47;17.83;;;9.80;;
17858;SDS011;35426;30.698;104.050;2022-09-01T01:33:23;20.40;;;9.00;;
17858;SDS011;35426;30.698;104.050;2022-09-01T01:36:00;21.87;;;8.40;;
17858;SDS011;35426;30.698;104.050;2022-09-01T01:38:47;19.43;;;8.40;;
17858;SDS011;35426;30.698;104.050;2022-09-01T01:41:23;20.73;;;8.80;;
17858;SDS011;35426;30.698;104.050;2022-09-01T01:44:01;18.53;;;8.37;;
17858;SDS011;35426;30.698;104.050;2022-09-01T01:46:37;18.13;;;8.43;;
17858;SDS011;35426;30.698;104.050;2022-09-01T01:49:14;24.67;;;8.00;;
17858;SDS011;35426;30.698;104.050;2022-09-01T01:51:49;14.27;;;7.93;;
17858;SDS011;35426;30.698;104.050;2022-09-01T01:54:30;19.57;;;8.30;;
17858;SDS011;35426;30.698;104.050;2022-09-01T01:57:06;15.03;;;7.60;;
17858;SDS011;35426;30.698;104.050;2022-09-01T01:59:39;18.27;;;8.47;;
17858;SDS011;35426;30.698;104.050;2022-09-01T02:02:13;22.47;;;8.73;;
17858;SDS011;35426;30.698;104.050;2022-09-01T02:04:48;16.13;;;7.87;;
17858;SDS011;35426;30.698;104.050;2022-09-01T02:07:23;18.43;;;7.83;;
17858;SDS011;35426;30.698;104.050;2022-09-01T02:10:00;16.17;;;7.77;;
17858;SDS011;35426;30.698;104.050;2022-09-01T02:12:36;19.50;;;7.93;;
17858;SDS011;35426;30.698;104.050;2022-09-01T02:15:12;17.43;;;8.50;;
17858;SDS011;35426;30.698;104.050;2022-09-01T02:17:47;17.50;;;8.97;;
17858;SDS011;35426;30.698;104.050;2022-09-01T02:20:20;21.83;;;8.50;;
17858;SDS011;35426;30.698;104.050;2022-09-01T02:22:57;14.20;;;8.53;;
17858;SDS011;35426;30.698;104.050;2022-09-01T02:25:39;18.90;;;7.90;;
17858;SDS011;35426;30.698;104.050;2022-09-01T02:28:37;25.47;;;8.13;;
17858;SDS011;35426;30.698;104.050;2022-09-01T02:31:26;23.53;;;8.60;;
17858;SDS011;35426;30.698;104.050;2022-09-01T02:34:00;25.10;;;8.17;;
17858;SDS011;35426;30.698;104.050;2022-09-01T02:36:35;18.93;;;9.60;;
17858;SDS011;35426;30.698;104.050;2022-09-01T02:39:11;23.10;;;9.30;;
17858;SDS011;35426;30.698;104.050;2022-09-01T02:41:46;23.67;;;8.97;;
17858;SDS011;35426;30.698;104.050;2022-09-01T02:44:31;21.40;;;8.67;;
17858;SDS011;35426;30.698;104.050;2022-09-01T02:47:09;19.53;;;8.70;;
17858;SDS011;35426;30.698;104.050;2022-09-01T02:49:46;25.13;;;9.70;;
17858;SDS011;35426;30.698;104.050;2022-09-01T02:52:20;20.57;;;9.83;;
17858;SDS011;35426;30.698;104.050;2022-09-01T02:54:54;20.93;;;10.13;;
17858;SDS011;35426;30.698;104.050;2022-09-01T02:57:28;18.80;;;10.43;;
17858;SDS011;35426;30.698;104.050;2022-09-01T03:00:06;30.33;;;11.57;;
17858;SDS011;35426;30.698;104.050;2022-09-01T03:02:49;26.93;;;11.83;;
17858;SDS011;35426;30.698;104.050;2022-09-01T03:05:23;25.77;;;13.43;;
17858;SDS011;35426;30.698;104.050;2022-09-01T03:07:59;27.13;;;14.40;;
17858;SDS011;35426;30.698;104.050;2022-09-01T03:10:37;30.60;;;12.03;;
17858;SDS011;35426;30.698;104.050;2022-09-01T03:13:12;28.60;;;14.13;;
17858;SDS011;35426;30.698;104.050;2022-09-01T03:15:49;24.60;;;13.20;;
17858;SDS011;35426;30.698;104.050;2022-09-01T03:18:23;22.60;;;12.03;;
17858;SDS011;35426;30.698;104.050;2022-09-01T03:20:57;29.10;;;11.80;;
17858;SDS011;35426;30.698;104.050;2022-09-01T03:23:32;30.47;;;13.10;;
17858;SDS011;35426;30.698;104.050;2022-09-01T03:26:18;24.53;;;13.87;;
17858;SDS011;35426;30.698;104.050;2022-09-01T03:28:53;30.63;;;12.50;;
17858;SDS011;35426;30.698;104.050;2022-09-01T03:31:30;27.45;;;13.27;;
17858;SDS011;35426;30.698;104.050;2022-09-01T03:34:05;25.63;;;13.87;;
17858;SDS011;35426;30.698;104.050;2022-09-01T03:36:46;31.75;;;15.80;;
17858;SDS011;35426;30.698;104.050;2022-09-01T03:39:26;27.85;;;15.52;;
17858;SDS011;35426;30.698;104.050;2022-09-01T03:42:00;30.92;;;15.20;;
17858;SDS011;35426;30.698;104.050;2022-09-01T03:44:36;27.00;;;15.38;;
17858;SDS011;35426;30.698;104.050;2022-09-01T03:47:16;26.70;;;15.73;;
17858;SDS011;35426;30.698;104.050;2022-09-01T03:49:51;28.50;;;17.02;;
17858;SDS011;35426;30.698;104.050;2022-09-01T03:52:29;29.08;;;16.15;;
17858;SDS011;35426;30.698;104.050;2022-09-01T03:55:03;31.50;;;15.38;;
17858;SDS011;35426;30.698;104.050;2022-09-01T03:57:38;31.45;;;15.40;;
17858;SDS011;35426;30.698;104.050;2022-09-01T04:00:16;25.40;;;14.68;;
17858;SDS011;35426;30.698;104.050;2022-09-01T04:02:54;28.05;;;15.25;;
17858;SDS011;35426;30.698;104.050;2022-09-01T04:05:43;27.08;;;14.70;;
17858;SDS011;35426;30.698;104.050;2022-09-01T04:08:16;29.10;;;16.40;;
17858;SDS011;35426;30.698;104.050;2022-09-01T04:10:52;30.25;;;14.48;;
17858;SDS011;35426;30.698;104.050;2022-09-01T04:13:30;29.10;;;15.80;;
17858;SDS011;35426;30.698;104.050;2022-09-01T04:16:24;32.63;;;17.10;;
17858;SDS011;35426;30.698;104.050;2022-09-01T04:19:17;27.73;;;17.17;;
17858;SDS011;35426;30.698;104.050;2022-09-01T04:21:56;36.67;;;18.25;;
17858;SDS011;35426;30.698;104.050;2022-09-01T04:24:42;31.70;;;18.50;;
17858;SDS011;35426;30.698;104.050;2022-09-01T04:27:31;32.75;;;19.67;;
17858;SDS011;35426;30.698;104.050;2022-09-01T04:30:09;35.13;;;18.75;;
17858;SDS011;35426;30.698;104.050;2022-09-01T04:32:46;28.90;;;18.30;;
17858;SDS011;35426;30.698;104.050;2022-09-01T04:35:22;33.17;;;18.23;;
17858;SDS011;35426;30.698;104.050;2022-09-01T04:38:05;39.78;;;20.13;;
17858;SDS011;35426;30.698;104.050;2022-09-01T04:40:39;32.90;;;20.55;;
17858;SDS011;35426;30.698;104.050;2022-09-01T04:43:13;34.28;;;20.67;;
17858;SDS011;35426;30.698;104.050;2022-09-01T04:45:47;36.80;;;21.05;;
17858;SDS011;35426;30.698;104.050;2022-09-01T04:48:22;39.03;;;21.83;;
17858;SDS011;35426;30.698;104.050;2022-09-01T04:50:59;35.60;;;20.13;;
17858;SDS011;35426;30.698;104.050;2022-09-01T04:53:51;43.42;;;19.77;;
17858;SDS011;35426;30.698;104.050;2022-09-01T04:56:27;34.78;;;18.08;;
17858;SDS011;35426;30.698;104.050;2022-09-01T04:59:13;29.95;;;18.30;;
17858;SDS011;35426;30.698;104.050;2022-09-01T05:01:59;31.73;;;18.58;;
17858;SDS011;35426;30.698;104.050;2022-09-01T05:04:56;34.40;;;17.20;;
17858;SDS011;35426;30.698;104.050;2022-09-01T05:07:37;28.85;;;17.13;;
17858;SDS011;35426;30.698;104.050;2022-09-01T05:10:12;34.35;;;19.60;;
17858;SDS011;35426;30.698;104.050;2022-09-01T05:13:13;33.63;;;21.90;;
17858;SDS011;35426;30.698;104.050;2022-09-01T05:15:59;34.30;;;20.42;;
17858;SDS011;35426;30.698;104.050;2022-09-01T05:18:34;38.15;;;21.23;;
17858;SDS011;35426;30.698;104.050;2022-09-01T05:21:10;36.35;;;19.58;;
17858;SDS011;35426;30.698;104.050;2022-09-01T05:23:46;37.72;;;22.13;;
17858;SDS011;35426;30.698;104.050;2022-09-01T05:26:21;37.42;;;22.25;;
17858;SDS011;35426;30.698;104.050;2022-09-01T05:29:01;44.70;;;23.80;;
17858;SDS011;35426;30.698;104.050;2022-09-01T05:31:41;38.67;;;22.75;;
17858;SDS011;35426;30.698;104.050;2022-09-01T05:34:18;33.83;;;19.13;;
17858;SDS011;35426;30.698;104.050;2022-09-01T05:36:57;41.60;;;20.92;;
17858;SDS011;35426;30.698;104.050;2022-09-01T05:39:48;37.80;;;22.40;;
17858;SDS011;35426;30.698;104.050;2022-09-01T05:42:24;42.75;;;23.40;;
17858;SDS011;35426;30.698;104.050;2022-09-01T05:45:00;35.92;;;22.83;;
17858;SDS011;35426;30.698;104.050;2022-09-01T05:47:37;39.72;;;22.65;;
17858;SDS011;35426;30.698;104.050;2022-09-01T05:50:10;40.15;;;23.83;;
17858;SDS011;35426;30.698;104.050;2022-09-01T05:52:45;39.58;;;24.13;;
17858;SDS011;35426;30.698;104.050;2022-09-01T05:55:22;40.83;;;23.92;;
17858;SDS011;35426;30.698;104.050;2022-09-01T05:58:04;35.97;;;21.38;;
17858;SDS011;35426;30.698;104.050;2022-09-01T06:00:42;44.50;;;24.85;;
17858;SDS011;35426;30.698;104.050;2022-09-01T06:03:18;44.97;;;23.35;;
17858;SDS011;35426;30.698;104.050;2022-09-01T06:05:55;39.72;;;25.38;;
17858;SDS011;35426;30.698;104.050;2022-09-01T06:08:37;41.30;;;24.17;;
17858;SDS011;35426;30.698;104.050;2022-09-01T06:11:16;46.17;;;26.73;;
17858;SDS011;35426;30.698;104.050;2022-09-01T06:13:54;42.63;;;25.27;;
17858;SDS011;35426;30.698;104.050;2022-09-01T06:16:27;46.10;;;25.60;;
17858;SDS011;35426;30.698;104.050;2022-09-01T06:19:02;45.40;;;25.85;;
17858;SDS011;35426;30.698;104.050;2022-09-01T06:21:38;36.10;;;22.23;;
17858;SDS011;35426;30.698;104.050;2022-09-01T06:27:03;38.67;;;23.33;;
17858;SDS011;35426;30.698;104.050;2022-09-01T06:29:39;36.58;;;22.67;;
17858;SDS011;35426;30.698;104.050;2022-09-01T06:33:04;38.25;;;22.27;;
17858;SDS011;35426;30.698;104.050;2022-09-01T06:35:41;40.25;;;23.30;;
17858;SDS011;35426;30.698;104.050;2022-09-01T06:38:18;39.10;;;24.70;;
17858;SDS011;35426;30.698;104.050;2022-09-01T06:41:05;43.92;;;24.58;;
17858;SDS011;35426;30.698;104.050;2022-09-01T06:43:43;51.47;;;26.58;;
17858;SDS011;35426;30.698;104.050;2022-09-01T06:46:21;43.97;;;27.20;;
17858;SDS011;35426;30.698;104.050;2022-09-01T06:49:11;41.70;;;25.80;;
17858;SDS011;35426;30.698;104.050;2022-09-01T06:51:45;42.33;;;26.60;;
17858;SDS011;35426;30.698;104.050;2022-09-01T06:54:23;43.10;;;26.63;;
17858;SDS011;35426;30.698;104.050;2022-09-01T06:57:07;43.50;;;26.60;;
17858;SDS011;35426;30.698;104.050;2022-09-01T07:00:03;43.20;;;24.98;;
17858;SDS011;35426;30.698;104.050;2022-09-01T07:02:51;40.13;;;24.95;;
17858;SDS011;35426;30.698;104.050;2022-09-01T07:05:42;39.53;;;23.05;;
17858;SDS011;35426;30.698;104.050;2022-09-01T07:09:11;40.72;;;24.75;;
17858;SDS011;35426;30.698;104.050;2022-09-01T07:12:09;42.95;;;26.88;;
17858;SDS011;35426;30.698;104.050;2022-09-01T07:14:58;45.47;;;26.50;;
17858;SDS011;35426;30.698;104.050;2022-09-01T07:17:57;43.38;;;24.98;;
17858;SDS011;35426;30.698;104.050;2022-09-01T07:20:31;44.03;;;25.38;;
17858;SDS011;35426;30.698;104.050;2022-09-01T07:23:28;41.80;;;25.75;;
17858;SDS011;35426;30.698;104.050;2022-09-01T07:26:23;43.30;;;25.25;;
17858;SDS011;35426;30.698;104.050;2022-09-01T07:28:58;36.90;;;23.02;;
17858;SDS011;35426;30.698;104.050;2022-09-01T07:31:34;36.50;;;23.02;;
17858;SDS011;35426;30.698;104.050;2022-09-01T07:34:31;48.20;;;26.85;;
17858;SDS011;35426;30.698;104.050;2022-09-01T07:37:09;41.90;;;23.63;;
17858;SDS011;35426;30.698;104.050;2022-09-01T07:40:05;43.60;;;24.40;;
17858;SDS011;35426;30.698;104.050;2022-09-01T07:43:19;41.53;;;23.63;;
17858;SDS011;35426;30.698;104.050;2022-09-01T07:46:37;36.45;;;22.63;;
17858;SDS011;35426;30.698;104.050;2022-09-01T07:49:18;42.58;;;25.13;;
17858;SDS011;35426;30.698;104.050;2022-09-01T07:52:14;40.33;;;22.17;;
17858;SDS011;35426;30.698;104.050;2022-09-01T07:54:55;37.40;;;21.88;;
17858;SDS011;35426;30.698;104.050;2022-09-01T07:57:28;41.38;;;23.08;;
17858;SDS011;35426;30.698;104.050;2022-09-01T08:00:03;36.50;;;23.13;;
17858;SDS011;35426;30.698;104.050;2022-09-01T08:02:38;38.47;;;23.52;;
17858;SDS011;35426;30.698;104.050;2022-09-01T08:05:15;45.70;;;25.40;;
17858;SDS011;35426;30.698;104.050;2022-09-01T08:08:43;44.95;;;26.40;;
17858;SDS011;35426;30.698;104.050;2022-09-01T08:11:28;42.10;;;24.92;;
17858;SDS011;35426;30.698;104.050;2022-09-01T08:14:23;49.20;;;26.95;;
17858;SDS011;35426;30.698;104.050;2022-09-01T08:17:01;45.90;;;27.77;;
17858;SDS011;35426;30.698;104.050;2022-09-01T08:19:57;42.50;;;26.00;;
17858;SDS011;35426;30.698;104.050;2022-09-01T08:22:52;40.95;;;23.75;;
17858;SDS011;35426;30.698;104.050;2022-09-01T08:25:39;36.97;;;23.30;;
17858;SDS011;35426;30.698;104.050;2022-09-01T08:28:15;35.92;;;21.77;;
17858;SDS011;35426;30.698;104.050;2022-09-01T08:30:56;43.22;;;22.27;;
17858;SDS011;35426;30.698;104.050;2022-09-01T08:33:38;35.75;;;19.33;;
17858;SDS011;35426;30.698;104.050;2022-09-01T08:36:14;37.20;;;21.58;;
17858;SDS011;35426;30.698;104.050;2022-09-01T08:38:52;39.35;;;22.13;;
17858;SDS011;35426;30.698;104.050;2022-09-01T08:41:42;37.03;;;22.55;;
17858;SDS011;35426;30.698;104.050;2022-09-01T08:44:27;43.33;;;22.25;;
17858;SDS011;35426;30.698;104.050;2022-09-01T08:47:10;39.15;;;24.10;;
17858;SDS011;35426;30.698;104.050;2022-09-01T08:49:59;38.17;;;22.65;;
17858;SDS011;35426;30.698;104.050;2022-09-01T08:53:06;39.00;;;22.77;;
17858;SDS011;35426;30.698;104.050;2022-09-01T08:55:46;40.93;;;21.13;;
17858;SDS011;35426;30.698;104.050;2022-09-01T08:58:29;36.95;;;22.95;;
17858;SDS011;35426;30.698;104.050;2022-09-01T09:01:22;38.03;;;21.13;;
17858;SDS011;35426;30.698;104.050;2022-09-01T09:04:04;39.53;;;23.40;;
17858;SDS011;35426;30.698;104.050;2022-09-01T09:06:52;35.10;;;19.33;;
17858;SDS011;35426;30.698;104.050;2022-09-01T09:09:36;34.97;;;21.10;;
17858;SDS011;35426;30.698;104.050;2022-09-01T09:12:25;40.13;;;21.90;;
17858;SDS011;35426;30.698;104.050;2022-09-01T09:15:19;35.90;;;21.03;;
17858;SDS011;35426;30.698;104.050;2022-09-01T09:18:04;41.47;;;22.30;;
17858;SDS011;35426;30.698;104.050;2022-09-01T09:21:06;40.90;;;21.70;;
17858;SDS011;35426;30.698;104.050;2022-09-01T09:23:45;39.03;;;20.90;;
17858;SDS011;35426;30.698;104.050;2022-09-01T09:26:24;38.30;;;19.30;;
17858;SDS011;35426;30.698;104.050;2022-09-01T09:29:15;35.90;;;20.57;;
17858;SDS011;35426;30.698;104.050;2022-09-01T09:32:00;38.07;;;21.13;;
17858;SDS011;35426;30.698;104.050;2022-09-01T09:34:57;37.13;;;21.90;;
17858;SDS011;35426;30.698;104.050;2022-09-01T09:37:53;37.67;;;19.33;;
17858;SDS011;35426;30.698;104.050;2022-09-01T09:40:26;32.10;;;19.50;;
17858;SDS011;35426;30.698;104.050;2022-09-01T09:43:15;39.90;;;20.80;;
17858;SDS011;35426;30.698;104.050;2022-09-01T09:49:08;37.57;;;20.37;;
17858;SDS011;35426;30.698;104.050;2022-09-01T09:51:45;31.93;;;19.53;;
17858;SDS011;35426;30.698;104.050;2022-09-01T09:54:23;31.73;;;18.37;;
17858;SDS011;35426;30.698;104.050;2022-09-01T09:57:08;31.17;;;19.37;;
17858;SDS011;35426;30.698;104.050;2022-09-01T09:59:43;30.30;;;18.27;;
17858;SDS011;35426;30.698;104.050;2022-09-01T10:02:30;39.97;;;20.67;;
17858;SDS011;35426;30.698;104.050;2022-09-01T10:08:05;32.73;;;19.00;;
17858;SDS011;35426;30.698;104.050;2022-09-01T10:10:41;32.37;;;20.90;;
17858;SDS011;35426;30.698;104.050;2022-09-01T10:13:26;31.07;;;20.53;;
17858;SDS011;35426;30.698;104.050;2022-09-01T10:16:00;34.80;;;21.50;;
17858;SDS011;35426;30.698;104.050;2022-09-01T10:18:39;33.23;;;18.93;;
17858;SDS011;35426;30.698;104.050;2022-09-01T10:21:16;41.47;;;22.10;;
17858;SDS011;35426;30.698;104.050;2022-09-01T10:23:55;37.53;;;22.10;;
17858;SDS011;35426;30.698;104.050;2022-09-01T10:26:49;31.20;;;18.60;;
17858;SDS011;35426;30.698;104.050;2022-09-01T10:29:27;38.20;;;21.47;;
17858;SDS011;35426;30.698;104.050;2022-09-01T10:32:15;34.13;;;21.50;;
17858;SDS011;35426;30.698;104.050;2022-09-01T10:35:04;31.93;;;20.27;;
17858;SDS011;35426;30.698;104.050;2022-09-01T10:37:45;33.87;;;20.77;;
17858;SDS011;35426;30.698;104.050;2022-09-01T10:43:24;32.30;;;19.30;;
17858;SDS011;35426;30.698;104.050;2022-09-01T10:49:20;41.67;;;21.07;;
17858;SDS011;35426;30.698;104.050;2022-09-01T10:52:27;33.93;;;21.13;;
17858;SDS011;35426;30.698;104.050;2022-09-01T10:55:26;35.90;;;20.80;;
17858;SDS011;35426;30.698;104.050;2022-09-01T11:13:08;33.47;;;20.00;;
17858;SDS011;35426;30.698;104.050;2022-09-01T11:16:02;33.70;;;19.70;;
17858;SDS011;35426;30.698;104.050;2022-09-01T11:22:17;26.30;;;16.50;;
17858;SDS011;35426;30.698;104.050;2022-09-01T11:34:11;22.80;;;13.50;;
17858;SDS011;35426;30.698;104.050;2022-09-01T11:36:53;23.13;;;13.70;;
17858;SDS011;35426;30.698;104.050;2022-09-01T11:39:33;25.50;;;13.40;;
17858;SDS011;35426;30.698;104.050;2022-09-01T11:42:16;25.07;;;13.53;;
17858;SDS011;35426;30.698;104.050;2022-09-01T11:44:54;19.33;;;12.27;;
17858;SDS011;35426;30.698;104.050;2022-09-01T11:50:26;21.77;;;13.20;;
17858;SDS011;35426;30.698;104.050;2022-09-01T11:53:01;22.67;;;13.50;;
17858;SDS011;35426;30.698;104.050;2022-09-01T11:55:36;21.50;;;13.50;;
17858;SDS011;35426;30.698;104.050;2022-09-01T12:01:11;20.57;;;13.10;;
17858;SDS011;35426;30.698;104.050;2022-09-01T12:03:50;21.33;;;12.87;;
17858;SDS011;35426;30.698;104.050;2022-09-01T12:06:24;23.13;;;13.53;;
17858;SDS011;35426;30.698;104.050;2022-09-01T12:09:00;18.07;;;12.50;;
17858;SDS011;35426;30.698;104.050;2022-09-01T12:11:35;21.27;;;12.40;;
17858;SDS011;35426;30.698;104.050;2022-09-01T12:17:46;19.53;;;12.90;;
17858;SDS011;35426;30.698;104.050;2022-09-01T12:20:26;18.67;;;12.70;;
17858;SDS011;35426;30.698;104.050;2022-09-01T12:23:02;22.43;;;12.83;;
17858;SDS011;35426;30.698;104.050;2022-09-01T12:25:47;21.60;;;12.43;;
17858;SDS011;35426;30.698;104.050;2022-09-01T12:28:21;22.83;;;14.07;;
17858;SDS011;35426;30.698;104.050;2022-09-01T12:31:00;21.97;;;13.40;;
17858;SDS011;35426;30.698;104.050;2022-09-01T12:33:37;21.10;;;13.53;;
17858;SDS011;35426;30.698;104.050;2022-09-01T12:36:23;22.40;;;12.97;;
17858;SDS011;35426;30.698;104.050;2022-09-01T12:42:07;23.37;;;14.87;;
17858;SDS011;35426;30.698;104.050;2022-09-01T12:44:50;20.43;;;13.87;;
17858;SDS011;35426;30.698;104.050;2022-09-01T12:47:45;23.10;;;14.17;;
17858;SDS011;35426;30.698;104.050;2022-09-01T12:50:40;29.03;;;15.47;;
17858;SDS011;35426;30.698;104.050;2022-09-01T12:53:22;26.80;;;16.00;;
17858;SDS011;35426;30.698;104.050;2022-09-01T12:56:05;27.73;;;15.83;;
17858;SDS011;35426;30.698;104.050;2022-09-01T12:59:05;23.70;;;15.87;;
17858;SDS011;35426;30.698;104.050;2022-09-01T13:01:45;27.00;;;16.17;;
17858;SDS011;35426;30.698;104.050;2022-09-01T13:04:23;30.33;;;16.33;;
17858;SDS011;35426;30.698;104.050;2022-09-01T13:07:03;28.73;;;17.03;;
17858;SDS011;35426;30.698;104.050;2022-09-01T13:09:40;27.37;;;16.90;;
17858;SDS011;35426;30.698;104.050;2022-09-01T13:12:17;28.43;;;16.93;;
17858;SDS011;35426;30.698;104.050;2022-09-01T13:14:52;27.97;;;17.17;;
17858;SDS011;35426;30.698;104.050;2022-09-01T13:17:26;27.47;;;17.60;;
17858;SDS011;35426;30.698;104.050;2022-09-01T13:20:00;30.63;;;17.70;;
17858;SDS011;35426;30.698;104.050;2022-09-01T13:22:38;30.30;;;17.67;;
17858;SDS011;35426;30.698;104.050;2022-09-01T13:28:06;18.47;;;11.73;;
17858;SDS011;35426;30.698;104.050;2022-09-01T13:30:47;21.33;;;11.40;;
17858;SDS011;35426;30.698;104.050;2022-09-01T13:33:45;19.87;;;11.03;;
17858;SDS011;35426;30.698;104.050;2022-09-01T13:36:40;16.10;;;9.70;;
17858;SDS011;35426;30.698;104.050;2022-09-01T13:39:23;14.70;;;8.40;;
17858;SDS011;35426;30.698;104.050;2022-09-01T13:41:59;13.93;;;8.03;;
17858;SDS011;35426;30.698;104.050;2022-09-01T13:44:35;14.33;;;7.73;;
17858;SDS011;35426;30.698;104.050;2022-09-01T13:47:22;15.40;;;8.30;;
17858;SDS011;35426;30.698;104.050;2022-09-01T13:49:59;16.30;;;7.90;;
17858;SDS011;35426;30.698;104.050;2022-09-01T13:52:38;11.97;;;7.57;;
17858;SDS011;35426;30.698;104.050;2022-09-01T13:55:23;13.40;;;7.30;;
17858;SDS011;35426;30.698;104.050;2022-09-01T13:58:08;11.57;;;6.70;;
17858;SDS011;35426;30.698;104.050;2022-09-01T14:00:48;17.33;;;7.23;;
17858;SDS011;35426;30.698;104.050;2022-09-01T14:03:27;17.80;;;7.57;;
17858;SDS011;35426;30.698;104.050;2022-09-01T14:06:06;14.13;;;7.37;;
17858;SDS011;35426;30.698;104.050;2022-09-01T14:08:46;14.87;;;8.00;;
17858;SDS011;35426;30.698;104.050;2022-09-01T14:11:28;15.57;;;8.37;;
17858;SDS011;35426;30.698;104.050;2022-09-01T14:14:15;15.40;;;7.80;;
17858;SDS011;35426;30.698;104.050;2022-09-01T14:16:51;24.70;;;8.77;;
17858;SDS011;35426;30.698;104.050;2022-09-01T14:19:26;15.67;;;8.03;;
17858;SDS011;35426;30.698;104.050;2022-09-01T14:22:02;11.60;;;7.60;;
17858;SDS011;35426;30.698;104.050;2022-09-01T14:24:42;16.00;;;8.57;;
17858;SDS011;35426;30.698;104.050;2022-09-01T14:27:17;15.70;;;8.37;;
17858;SDS011;35426;30.698;104.050;2022-09-01T14:29:54;12.43;;;7.73;;
17858;SDS011;35426;30.698;104.050;2022-09-01T14:32:29;15.83;;;7.47;;
17858;SDS011;35426;30.698;104.050;2022-09-01T14:35:03;10.87;;;7.03;;
17858;SDS011;35426;30.698;104.050;2022-09-01T14:37:38;13.87;;;7.17;;
17858;SDS011;35426;30.698;104.050;2022-09-01T14:40:14;13.37;;;7.10;;
17858;SDS011;35426;30.698;104.050;2022-09-01T14:42:50;14.60;;;7.80;;
17858;SDS011;35426;30.698;104.050;2022-09-01T14:45:29;14.83;;;7.10;;
17858;SDS011;35426;30.698;104.050;2022-09-01T14:48:05;14.63;;;7.90;;
17858;SDS011;35426;30.698;104.050;2022-09-01T14:50:41;11.13;;;7.40;;
17858;SDS011;35426;30.698;104.050;2022-09-01T14:53:16;17.27;;;7.77;;
17858;SDS011;35426;30.698;104.050;2022-09-01T14:55:51;16.23;;;8.77;;
17858;SDS011;35426;30.698;104.050;2022-09-01T14:58:28;16.80;;;8.40;;
17858;SDS011;35426;30.698;104.050;2022-09-01T15:01:21;16.40;;;8.77;;
17858;SDS011;35426;30.698;104.050;2022-09-01T15:04:08;17.60;;;8.70;;
17858;SDS011;35426;30.698;104.050;2022-09-01T15:06:43;17.90;;;8.60;;
17858;SDS011;35426;30.698;104.050;2022-09-01T15:09:17;21.03;;;9.07;;
17858;SDS011;35426;30.698;104.050;2022-09-01T15:11:51;14.30;;;8.63;;
17858;SDS011;35426;30.698;104.050;2022-09-01T15:14:31;15.90;;;9.20;;
17858;SDS011;35426;30.698;104.050;2022-09-01T15:17:13;14.67;;;9.13;;
17858;SDS011;35426;30.698;104.050;2022-09-01T15:19:48;13.60;;;8.73;;
17858;SDS011;35426;30.698;104.050;2022-09-01T15:22:21;14.20;;;9.60;;
17858;SDS011;35426;30.698;104.050;2022-09-01T15:24:58;20.13;;;9.67;;
17858;SDS011;35426;30.698;104.050;2022-09-01T15:27:34;16.97;;;9.97;;
17858;SDS011;35426;30.698;104.050;2022-09-01T15:30:09;20.97;;;10.47;;
17858;SDS011;35426;30.698;104.050;2022-09-01T15:32:51;19.53;;;10.50;;
17858;SDS011;35426;30.698;104.050;2022-09-01T15:35:26;19.93;;;10.83;;
17858;SDS011;35426;30.698;104.050;2022-09-01T15:38:02;17.67;;;10.83;;
17858;SDS011;35426;30.698;104.050;2022-09-01T15:40:45;16.30;;;10.13;;
17858;SDS011;35426;30.698;104.050;2022-09-01T15:43:26;15.57;;;9.47;;
17858;SDS011;35426;30.698;104.050;2022-09-01T15:46:03;19.10;;;9.40;;
17858;SDS011;35426;30.698;104.050;2022-09-01T15:48:41;18.80;;;9.43;;
17858;SDS011;35426;30.698;104.050;2022-09-01T15:54:10;15.87;;;8.90;;
17858;SDS011;35426;30.698;104.050;2022-09-01T15:56:48;17.83;;;9.27;;
17858;SDS011;35426;30.698;104.050;2022-09-01T15:59:22;17.53;;;9.33;;
17858;SDS011;35426;30.698;104.050;2022-09-01T16:01:57;19.33;;;9.70;;
17858;SDS011;35426;30.698;104.050;2022-09-01T16:04:37;16.27;;;9.30;;
17858;SDS011;35426;30.698;104.050;2022-09-01T16:07:11;21.77;;;10.00;;
17858;SDS011;35426;30.698;104.050;2022-09-01T16:09:45;18.97;;;8.97;;
17858;SDS011;35426;30.698;104.050;2022-09-01T16:12:20;15.63;;;9.63;;
17858;SDS011;35426;30.698;104.050;2022-09-01T16:14:55;19.53;;;10.77;;
17858;SDS011;35426;30.698;104.050;2022-09-01T16:17:40;17.30;;;9.80;;
17858;SDS011;35426;30.698;104.050;2022-09-01T16:20:23;17.33;;;10.50;;